Time;durP1;ratioP1;P1;durP2;ratioP2;P2;SDS_P1;SDS_P2;PMS_P1;PMS_P2;Temp;Humidity;BMP_temperature;BMP_pressure;BME280_temperature;BME280_humidity;BME280_pressure;Samples;Min_cycle;Max_cycle;Signal;HPM_P1;HPM_P2
2023/04/24 00:02:46;;;;;;;1.90;0.90;;;9.90;99.90;;;;;;20768086;28;20037;-79
2023/04/24 00:12:47;;;;;;;2.35;0.80;;;9.90;99.90;;;;;;20770436;28;20401;-79
2023/04/24 00:22:48;;;;;;;1.90;1.00;;;9.80;99.90;;;;;;20762102;28;20029;-79
2023/04/24 00:32:49;;;;;;;1.77;0.97;;;9.80;99.90;;;;;;20763458;28;20277;-78
2023/04/24 00:42:50;;;;;;;4.30;1.10;;;10.00;99.90;;;;;;20760323;28;20041;-79
2023/04/24 00:52:51;;;;;;;1.70;1.05;;;10.10;99.90;;;;;;20761036;28;20037;-76
2023/04/24 01:02:53;;;;;;;3.40;0.93;;;10.10;99.90;;;;;;20760696;28;20174;-80
2023/04/24 01:12:54;;;;;;;1.27;0.93;;;10.10;99.90;;;;;;20759082;28;20096;-80
2023/04/24 01:22:56;;;;;;;1.60;1.20;;;10.30;99.90;;;;;;20772278;28;20033;-80
2023/04/24 01:32:59;;;;;;;1.67;1.20;;;10.30;99.90;;;;;;20774885;28;20069;-80
2023/04/24 01:43:00;;;;;;;2.78;1.50;;;10.20;99.90;;;;;;20774843;28;20033;-80
2023/04/24 01:53:01;;;;;;;2.10;1.23;;;10.20;99.90;;;;;;20783069;28;20180;-80
2023/04/24 02:03:01;;;;;;;2.30;1.10;;;10.30;99.90;;;;;;20828832;28;20029;-80
2023/04/24 02:13:02;;;;;;;5.13;0.97;;;10.30;99.90;;;;;;20854205;28;20112;-79
2023/04/24 02:23:03;;;;;;;2.73;0.70;;;10.30;99.90;;;;;;20853227;28;20049;-78
2023/04/24 02:33:04;;;;;;;1.53;0.70;;;10.20;99.90;;;;;;20784669;28;20484;-79
2023/04/24 02:43:05;;;;;;;0.60;0.50;;;10.30;99.90;;;;;;20770952;28;20037;-78
2023/04/24 02:53:06;;;;;;;2.53;0.50;;;10.20;99.90;;;;;;20768252;28;20037;-79
2023/04/24 03:03:07;;;;;;;1.20;0.40;;;10.20;99.90;;;;;;20765669;28;20068;-79
2023/04/24 03:13:07;;;;;;;0.70;0.40;;;10.00;99.90;;;;;;20767260;28;20116;-79
2023/04/24 03:23:08;;;;;;;0.50;0.40;;;9.90;99.90;;;;;;20767662;28;20022;-79
2023/04/24 03:33:11;;;;;;;1.65;0.60;;;9.90;99.90;;;;;;20762783;28;20042;-78
2023/04/24 03:43:19;;;;;;;1.92;1.75;;;9.80;99.90;;;;;;20768611;28;20034;-78
2023/04/24 03:53:20;;;;;;;0.75;0.57;;;9.60;99.90;;;;;;20765750;28;20065;-78
2023/04/24 04:03:21;;;;;;;;;;;9.50;99.90;;;;;;20755326;28;20030;-78
2023/04/24 04:13:23;;;;;;;3.72;0.77;;;9.40;99.90;;;;;;20788024;28;19913;-74
2023/04/24 04:23:25;;;;;;;3.83;1.23;;;9.20;99.90;;;;;;20824135;28;20492;-74
2023/04/24 04:33:51;;;;;;;3.83;1.10;;;9.00;99.90;;;;;;20748596;28;20070;-75
2023/04/24 04:43:53;;;;;;;;;;;8.90;99.90;;;;;;20764412;28;20030;-79
2023/04/24 04:53:54;;;;;;;3.97;1.20;;;8.80;99.90;;;;;;20777428;28;19979;-77
2023/04/24 05:03:56;;;;;;;7.00;1.80;;;8.70;99.90;;;;;;20780068;28;20029;-79
2023/04/24 05:13:57;;;;;;;5.93;1.98;;;8.70;99.90;;;;;;20788106;28;20056;-78
2023/04/24 05:24:06;;;;;;;4.97;2.25;;;8.60;99.90;;;;;;20774090;28;20519;-78
2023/04/24 05:34:22;;;;;;;6.07;2.20;;;8.60;99.90;;;;;;20772922;28;20038;-78
2023/04/24 05:44:27;;;;;;;7.40;2.67;;;8.60;99.90;;;;;;20772578;28;20552;-79
2023/04/24 05:54:28;;;;;;;10.20;3.40;;;8.60;99.90;;;;;;20776786;28;20056;-79
2023/04/24 06:04:31;;;;;;;4.82;2.97;;;9.00;99.90;;;;;;20771895;28;20041;-78
2023/04/24 06:14:33;;;;;;;5.65;2.90;;;8.90;99.90;;;;;;20772557;28;20033;-78
2023/04/24 06:24:57;;;;;;;12.75;7.15;;;8.80;99.90;;;;;;20776327;28;20037;-79
2023/04/24 06:34:59;;;;;;;9.40;4.88;;;9.00;99.90;;;;;;20767331;28;20049;-79
2023/04/24 06:44:59;;;;;;;8.97;3.63;;;9.10;99.90;;;;;;20768394;28;20406;-79
2023/04/24 06:55:04;;;;;;;6.90;4.37;;;9.20;99.90;;;;;;20764465;28;20098;-78
2023/04/24 07:05:05;;;;;;;1.63;0.90;;;9.30;99.90;;;;;;20782691;28;20508;-78
2023/04/24 07:15:07;;;;;;;1.73;1.27;;;8.80;99.90;;;;;;20775249;28;20069;-77
2023/04/24 07:25:08;;;;;;;3.42;1.80;;;8.40;99.90;;;;;;20770369;28;20025;-77
2023/04/24 07:35:09;;;;;;;;;;;8.10;99.90;;;;;;20780769;28;20026;-78
2023/04/24 07:45:10;;;;;;;4.88;2.67;;;7.90;99.90;;;;;;20766195;28;19940;-78
2023/04/24 07:55:11;;;;;;;4.30;2.60;;;8.00;99.90;;;;;;20761981;28;20041;-77
2023/04/24 08:05:12;;;;;;;6.53;2.90;;;8.40;99.90;;;;;;20764133;28;20037;-78
2023/04/24 08:15:13;;;;;;;8.87;3.17;;;9.10;99.90;;;;;;20766074;28;20026;-78
2023/04/24 08:25:13;;;;;;;7.97;3.43;;;9.50;99.90;;;;;;20760280;28;20074;-78
2023/04/24 08:35:14;;;;;;;11.27;4.23;;;9.30;99.90;;;;;;20762355;28;20056;-78
2023/04/24 08:45:15;;;;;;;7.07;3.13;;;9.10;99.90;;;;;;20758550;28;20041;-78
2023/04/24 08:55:18;;;;;;;6.00;2.80;;;9.60;99.90;;;;;;20761675;28;20563;-79
2023/04/24 09:05:21;;;;;;;5.05;2.10;;;9.90;99.90;;;;;;20765377;28;20033;-79
2023/04/24 09:15:22;;;;;;;10.48;2.10;;;10.30;99.90;;;;;;20766000;28;20044;-77
2023/04/24 09:25:33;;;;;;;6.57;2.10;;;10.10;99.90;;;;;;20759239;28;20026;-78
2023/04/24 09:35:34;;;;;;;4.83;1.90;;;10.00;99.90;;;;;;20757616;28;20310;-78
2023/04/24 09:45:36;;;;;;;11.77;4.65;;;10.10;99.90;;;;;;20770733;28;20117;-78
2023/04/24 09:55:46;;;;;;;5.00;2.20;;;10.70;99.90;;;;;;20768768;28;20029;-78
2023/04/24 10:05:47;;;;;;;4.88;2.72;;;12.30;99.90;;;;;;20777679;28;20109;-78
2023/04/24 10:15:48;;;;;;;4.10;1.98;;;11.20;99.90;;;;;;20794390;28;20108;-77
2023/04/24 10:25:51;;;;;;;3.78;1.80;;;10.50;99.90;;;;;;20768403;28;20085;-77
2023/04/24 10:35:52;;;;;;;8.70;1.90;;;10.40;99.90;;;;;;20751670;28;20527;-77
2023/04/24 10:46:03;;;;;;;;;;;11.00;99.90;;;;;;20749915;28;20022;-76
2023/04/24 10:56:05;;;;;;;1.90;1.30;;;10.70;99.90;;;;;;20749384;28;20296;-76
2023/04/24 11:06:08;;;;;;;7.10;1.38;;;10.90;99.90;;;;;;20748520;28;20045;-76
2023/04/24 11:16:15;;;;;;;2.70;1.80;;;10.70;99.90;;;;;;20748320;28;20030;-76
2023/04/24 11:26:24;;;;;;;10.77;4.45;;;10.60;99.90;;;;;;20740686;28;20060;-77
2023/04/24 11:36:26;;;;;;;10.75;5.03;;;10.80;99.90;;;;;;20742790;28;20215;-77
2023/04/24 11:46:29;;;;;;;6.43;2.08;;;11.30;99.90;;;;;;20742895;28;20316;-77
2023/04/24 11:56:30;;;;;;;2.92;2.10;;;11.90;99.90;;;;;;20744356;28;20037;-77
2023/04/24 12:06:31;;;;;;;5.77;1.90;;;11.50;99.90;;;;;;20751007;28;20405;-76
2023/04/24 12:16:33;;;;;;;5.80;2.00;;;11.20;99.90;;;;;;20743225;28;20053;-76
2023/04/24 12:26:34;;;;;;;2.63;1.60;;;12.50;99.90;;;;;;20741526;28;20032;-76
2023/04/24 12:36:35;;;;;;;4.20;1.50;;;12.60;99.90;;;;;;20738478;28;20065;-76
2023/04/24 12:46:36;;;;;;;;;;;11.90;99.90;;;;;;20739272;28;20065;-76
2023/04/24 12:56:39;;;;;;;9.20;1.77;;;11.80;99.90;;;;;;20741148;28;19910;-75
2023/04/24 13:06:39;;;;;;;2.88;1.90;;;11.80;99.90;;;;;;20741604;28;20066;-75
2023/04/24 13:16:40;;;;;;;3.63;1.40;;;11.80;99.90;;;;;;20749340;28;20034;-76
2023/04/24 13:26:41;;;;;;;3.03;2.00;;;11.40;99.90;;;;;;20757582;28;20477;-75
2023/04/24 13:36:42;;;;;;;3.93;2.00;;;11.20;99.90;;;;;;20756283;28;20088;-76
2023/04/24 13:46:44;;;;;;;7.83;2.07;;;11.90;99.90;;;;;;20763896;28;20440;-76
2023/04/24 13:56:45;;;;;;;2.00;1.70;;;11.80;99.90;;;;;;20754588;28;20088;-79
2023/04/24 14:06:46;;;;;;;3.10;1.73;;;12.30;99.90;;;;;;20758681;28;20457;-76
2023/04/24 14:16:47;;;;;;;15.43;2.50;;;12.20;99.90;;;;;;20753026;28;20033;-76
2023/04/24 14:26:48;;;;;;;4.30;1.87;;;12.20;99.90;;;;;;20752135;28;20442;-76
2023/04/24 14:36:48;;;;;;;5.80;1.77;;;12.70;99.90;;;;;;20751936;28;20072;-75
2023/04/24 14:46:49;;;;;;;6.77;2.30;;;12.80;99.90;;;;;;20750722;28;20110;-76
2023/04/24 14:56:50;;;;;;;4.67;1.63;;;13.70;99.90;;;;;;20754863;28;20045;-76
2023/04/24 15:06:53;;;;;;;4.37;1.83;;;13.50;99.90;;;;;;20749617;28;20046;-75
2023/04/24 15:16:54;;;;;;;3.67;1.80;;;14.00;99.90;;;;;;20749815;28;20038;-76
2023/04/24 15:26:55;;;;;;;4.83;1.77;;;13.50;99.90;;;;;;20746107;28;20079;-76
2023/04/24 15:36:56;;;;;;;2.13;1.52;;;13.70;99.90;;;;;;20745776;28;20492;-76
2023/04/24 15:47:00;;;;;;;5.20;1.90;;;14.60;99.90;;;;;;20745847;28;20052;-76
2023/04/24 15:57:00;;;;;;;9.10;4.75;;;14.40;99.90;;;;;;20745535;28;20045;-76
2023/04/24 16:07:01;;;;;;;5.53;2.93;;;13.80;99.90;;;;;;20744466;28;20034;-75
2023/04/24 16:17:02;;;;;;;14.70;6.47;;;12.80;99.90;;;;;;20744166;28;20038;-76
2023/04/24 16:27:03;;;;;;;22.33;7.63;;;13.10;99.90;;;;;;20743548;28;20053;-76
2023/04/24 16:37:05;;;;;;;19.87;7.03;;;13.10;99.90;;;;;;20743539;28;20499;-75
2023/04/24 16:47:06;;;;;;;4.18;2.17;;;12.90;99.90;;;;;;20749422;28;20385;-76
2023/04/24 16:57:07;;;;;;;4.35;2.22;;;12.30;99.90;;;;;;20759590;28;20493;-75
2023/04/24 17:07:08;;;;;;;3.60;1.30;;;12.10;99.90;;;;;;20758857;28;20141;-75
2023/04/24 17:17:09;;;;;;;3.77;1.77;;;12.00;99.90;;;;;;20758449;28;20026;-75
2023/04/24 17:27:10;;;;;;;3.10;2.07;;;12.00;99.90;;;;;;20757026;28;20398;-75
2023/04/24 17:37:11;;;;;;;3.30;1.60;;;11.60;99.90;;;;;;20756363;28;20034;-75
2023/04/24 17:47:12;;;;;;;3.20;1.90;;;11.50;99.90;;;;;;20756239;28;20455;-75
2023/04/24 17:57:13;;;;;;;4.07;2.00;;;11.50;99.90;;;;;;20759939;28;20033;-75
2023/04/24 18:07:13;;;;;;;5.00;2.00;;;11.30;99.90;;;;;;20753090;28;20034;-75
2023/04/24 18:17:14;;;;;;;3.67;1.87;;;11.10;99.90;;;;;;20753368;28;20030;-76
2023/04/24 18:27:15;;;;;;;5.03;2.13;;;11.00;99.90;;;;;;20756131;28;20108;-77
2023/04/24 18:37:16;;;;;;;8.37;2.00;;;10.80;99.90;;;;;;20751958;28;20113;-77
2023/04/24 18:47:16;;;;;;;6.97;1.87;;;10.70;99.90;;;;;;20751515;28;20040;-76
2023/04/24 18:57:17;;;;;;;3.80;2.30;;;10.50;99.90;;;;;;20749953;28;20104;-76
2023/04/24 19:07:18;;;;;;;9.40;3.27;;;10.30;99.90;;;;;;20750007;28;20037;-76
2023/04/24 19:17:23;;;;;;;13.83;5.17;;;10.20;99.90;;;;;;20748591;28;20512;-77
2023/04/24 19:27:24;;;;;;;6.32;3.00;;;10.20;99.90;;;;;;20748289;28;20088;-76
2023/04/24 19:37:25;;;;;;;4.40;2.20;;;10.10;99.90;;;;;;20747825;28;20026;-76
2023/04/24 19:47:25;;;;;;;6.23;1.90;;;9.90;99.90;;;;;;20764649;28;20037;-76
2023/04/24 19:57:26;;;;;;;7.90;2.20;;;9.80;99.90;;;;;;20746560;28;20041;-76
2023/04/24 20:07:27;;;;;;;3.33;2.10;;;9.50;99.90;;;;;;20754210;28;20040;-77
2023/04/24 20:17:28;;;;;;;3.23;2.13;;;9.50;99.90;;;;;;20746378;28;20025;-77
2023/04/24 20:27:29;;;;;;;4.73;2.67;;;9.10;99.90;;;;;;20744152;28;20030;-77
2023/04/24 20:37:29;;;;;;;5.47;1.90;;;9.00;99.90;;;;;;20743508;28;20032;-76
2023/04/24 20:47:30;;;;;;;3.90;2.43;;;9.00;99.90;;;;;;20742511;28;20030;-76
2023/04/24 20:57:31;;;;;;;5.57;2.33;;;9.00;99.90;;;;;;20741852;28;20033;-75
2023/04/24 21:07:32;;;;;;;6.83;2.60;;;8.80;99.90;;;;;;20742465;28;20030;-75
2023/04/24 21:17:33;;;;;;;8.07;2.30;;;8.90;99.90;;;;;;20743250;28;20048;-75
2023/04/24 21:27:34;;;;;;;9.90;4.17;;;8.90;99.90;;;;;;20742362;28;20034;-75
2023/04/24 21:37:36;;;;;;;;;;;9.00;99.90;;;;;;20749548;28;20026;-75
2023/04/24 21:47:37;;;;;;;13.40;3.27;;;9.00;99.90;;;;;;20760104;28;19913;-75
2023/04/24 21:57:38;;;;;;;9.77;2.80;;;9.00;99.90;;;;;;20839377;28;20040;-75
2023/04/24 22:07:40;;;;;;;6.00;3.05;;;8.80;99.90;;;;;;20836248;28;20034;-75
2023/04/24 22:17:40;;;;;;;;;;;8.50;99.90;;;;;;20834372;28;20053;-75
2023/04/24 22:27:41;;;;;;;6.07;2.80;;;8.50;99.90;;;;;;20752991;28;19971;-75
2023/04/24 22:37:42;;;;;;;4.93;2.60;;;8.60;99.90;;;;;;20752321;28;20030;-76
2023/04/24 22:47:43;;;;;;;3.63;2.43;;;8.50;99.90;;;;;;20751031;28;20071;-76
2023/04/24 22:57:44;;;;;;;4.33;2.53;;;8.50;99.90;;;;;;20742727;28;20117;-75
2023/04/24 23:07:45;;;;;;;6.90;2.27;;;8.70;99.90;;;;;;20749287;28;20053;-75
2023/04/24 23:17:45;;;;;;;11.13;2.40;;;8.70;99.90;;;;;;20749012;28;20034;-77
2023/04/24 23:27:47;;;;;;;8.43;2.53;;;8.70;99.90;;;;;;20748809;28;20532;-76
2023/04/24 23:37:48;;;;;;;5.47;2.67;;;8.50;99.90;;;;;;20750364;28;20038;-76
2023/04/24 23:47:49;;;;;;;7.20;3.17;;;8.30;99.90;;;;;;20747102;28;20091;-76
2023/04/24 23:57:50;;;;;;;6.80;3.03;;;8.20;99.90;;;;;;20745762;28;20034;-76
